sensor_id;sensor_type;location;lat;lon;timestamp;P1;durP1;ratioP1;P2;durP2;ratioP2
11287;SDS011;5700;50.996;7.044;2023-04-19T00:02:57;7.07;;;4.10;;
11287;SDS011;5700;50.996;7.044;2023-04-19T00:06:01;7.50;;;4.30;;
11287;SDS011;5700;50.996;7.044;2023-04-19T00:09:02;8.48;;;4.20;;
11287;SDS011;5700;50.996;7.044;2023-04-19T00:12:04;6.85;;;3.70;;
11287;SDS011;5700;50.996;7.044;2023-04-19T00:15:05;7.47;;;4.45;;
11287;SDS011;5700;50.996;7.044;2023-04-19T00:18:07;8.00;;;4.28;;
11287;SDS011;5700;50.996;7.044;2023-04-19T00:21:10;7.90;;;4.25;;
11287;SDS011;5700;50.996;7.044;2023-04-19T00:24:12;7.97;;;4.43;;
11287;SDS011;5700;50.996;7.044;2023-04-19T00:27:13;11.18;;;4.35;;
11287;SDS011;5700;50.996;7.044;2023-04-19T00:30:14;7.10;;;3.83;;
11287;SDS011;5700;50.996;7.044;2023-04-19T00:33:16;8.95;;;4.10;;
11287;SDS011;5700;50.996;7.044;2023-04-19T00:36:19;9.32;;;4.05;;
11287;SDS011;5700;50.996;7.044;2023-04-19T00:39:20;7.35;;;4.53;;
11287;SDS011;5700;50.996;7.044;2023-04-19T00:42:21;7.65;;;4.35;;
11287;SDS011;5700;50.996;7.044;2023-04-19T00:45:23;8.82;;;4.28;;
11287;SDS011;5700;50.996;7.044;2023-04-19T00:48:25;8.48;;;5.03;;
11287;SDS011;5700;50.996;7.044;2023-04-19T00:51:28;8.52;;;5.13;;
11287;SDS011;5700;50.996;7.044;2023-04-19T00:54:30;7.50;;;4.40;;
11287;SDS011;5700;50.996;7.044;2023-04-19T00:57:33;7.40;;;4.70;;
11287;SDS011;5700;50.996;7.044;2023-04-19T01:00:34;8.98;;;5.65;;
11287;SDS011;5700;50.996;7.044;2023-04-19T01:03:36;10.05;;;4.93;;
11287;SDS011;5700;50.996;7.044;2023-04-19T01:06:39;10.55;;;5.75;;
11287;SDS011;5700;50.996;7.044;2023-04-19T01:09:42;9.27;;;5.07;;
11287;SDS011;5700;50.996;7.044;2023-04-19T01:12:43;7.22;;;4.70;;
11287;SDS011;5700;50.996;7.044;2023-04-19T01:15:44;9.35;;;4.85;;
11287;SDS011;5700;50.996;7.044;2023-04-19T01:18:47;8.40;;;5.00;;
11287;SDS011;5700;50.996;7.044;2023-04-19T01:21:50;8.63;;;5.18;;
11287;SDS011;5700;50.996;7.044;2023-04-19T01:24:53;8.52;;;4.90;;
11287;SDS011;5700;50.996;7.044;2023-04-19T01:27:55;8.38;;;5.03;;
11287;SDS011;5700;50.996;7.044;2023-04-19T01:30:56;9.07;;;5.28;;
11287;SDS011;5700;50.996;7.044;2023-04-19T01:33:58;10.52;;;5.43;;
11287;SDS011;5700;50.996;7.044;2023-04-19T01:36:59;7.72;;;4.38;;
11287;SDS011;5700;50.996;7.044;2023-04-19T01:40:02;8.15;;;5.03;;
11287;SDS011;5700;50.996;7.044;2023-04-19T01:43:05;7.90;;;4.28;;
11287;SDS011;5700;50.996;7.044;2023-04-19T01:46:07;9.45;;;5.22;;
11287;SDS011;5700;50.996;7.044;2023-04-19T01:49:08;7.65;;;4.13;;
11287;SDS011;5700;50.996;7.044;2023-04-19T01:52:10;7.75;;;4.35;;
11287;SDS011;5700;50.996;7.044;2023-04-19T01:55:13;6.45;;;4.03;;
11287;SDS011;5700;50.996;7.044;2023-04-19T01:58:14;7.60;;;4.07;;
11287;SDS011;5700;50.996;7.044;2023-04-19T02:01:16;6.65;;;3.80;;
11287;SDS011;5700;50.996;7.044;2023-04-19T02:04:19;5.97;;;3.70;;
11287;SDS011;5700;50.996;7.044;2023-04-19T02:07:21;7.20;;;4.57;;
11287;SDS011;5700;50.996;7.044;2023-04-19T02:10:24;7.88;;;4.75;;
11287;SDS011;5700;50.996;7.044;2023-04-19T02:13:26;7.50;;;4.45;;
11287;SDS011;5700;50.996;7.044;2023-04-19T02:16:27;9.32;;;4.75;;
11287;SDS011;5700;50.996;7.044;2023-04-19T02:19:29;8.25;;;5.30;;
11287;SDS011;5700;50.996;7.044;2023-04-19T02:22:31;7.65;;;4.97;;
11287;SDS011;5700;50.996;7.044;2023-04-19T02:25:33;8.15;;;4.38;;
11287;SDS011;5700;50.996;7.044;2023-04-19T02:28:35;9.07;;;4.75;;
11287;SDS011;5700;50.996;7.044;2023-04-19T02:31:38;8.88;;;4.47;;
11287;SDS011;5700;50.996;7.044;2023-04-19T02:34:39;9.55;;;5.28;;
11287;SDS011;5700;50.996;7.044;2023-04-19T02:37:41;7.70;;;4.70;;
11287;SDS011;5700;50.996;7.044;2023-04-19T02:40:44;7.82;;;4.57;;
11287;SDS011;5700;50.996;7.044;2023-04-19T02:43:45;7.25;;;4.50;;
11287;SDS011;5700;50.996;7.044;2023-04-19T02:46:47;10.57;;;5.00;;
11287;SDS011;5700;50.996;7.044;2023-04-19T02:49:49;8.30;;;5.10;;
11287;SDS011;5700;50.996;7.044;2023-04-19T02:52:50;10.85;;;5.97;;
11287;SDS011;5700;50.996;7.044;2023-04-19T02:55:53;12.82;;;6.72;;
11287;SDS011;5700;50.996;7.044;2023-04-19T02:58:55;13.18;;;6.72;;
11287;SDS011;5700;50.996;7.044;2023-04-19T03:01:57;11.02;;;6.00;;
11287;SDS011;5700;50.996;7.044;2023-04-19T03:04:59;11.27;;;7.03;;
11287;SDS011;5700;50.996;7.044;2023-04-19T03:08:00;11.45;;;6.65;;
11287;SDS011;5700;50.996;7.044;2023-04-19T03:11:04;12.32;;;6.43;;
11287;SDS011;5700;50.996;7.044;2023-04-19T03:14:05;12.38;;;6.38;;
11287;SDS011;5700;50.996;7.044;2023-04-19T03:17:06;14.15;;;6.85;;
11287;SDS011;5700;50.996;7.044;2023-04-19T03:20:08;15.35;;;6.20;;
11287;SDS011;5700;50.996;7.044;2023-04-19T03:23:11;12.35;;;7.05;;
11287;SDS011;5700;50.996;7.044;2023-04-19T03:26:13;11.32;;;7.05;;
11287;SDS011;5700;50.996;7.044;2023-04-19T03:29:15;10.73;;;6.28;;
11287;SDS011;5700;50.996;7.044;2023-04-19T03:32:16;11.82;;;7.28;;
11287;SDS011;5700;50.996;7.044;2023-04-19T03:35:18;10.48;;;6.15;;
11287;SDS011;5700;50.996;7.044;2023-04-19T03:38:20;11.35;;;6.57;;
11287;SDS011;5700;50.996;7.044;2023-04-19T03:41:23;10.52;;;6.05;;
11287;SDS011;5700;50.996;7.044;2023-04-19T03:44:26;11.35;;;6.28;;
11287;SDS011;5700;50.996;7.044;2023-04-19T03:47:27;10.00;;;6.07;;
11287;SDS011;5700;50.996;7.044;2023-04-19T03:50:28;11.43;;;6.63;;
11287;SDS011;5700;50.996;7.044;2023-04-19T03:53:30;15.15;;;6.88;;
11287;SDS011;5700;50.996;7.044;2023-04-19T03:56:33;11.70;;;6.80;;
11287;SDS011;5700;50.996;7.044;2023-04-19T03:59:34;12.32;;;6.78;;
11287;SDS011;5700;50.996;7.044;2023-04-19T04:02:36;14.73;;;7.03;;
11287;SDS011;5700;50.996;7.044;2023-04-19T04:05:38;12.23;;;6.63;;
11287;SDS011;5700;50.996;7.044;2023-04-19T04:08:39;11.07;;;6.85;;
11287;SDS011;5700;50.996;7.044;2023-04-19T04:11:42;10.93;;;6.70;;
11287;SDS011;5700;50.996;7.044;2023-04-19T04:14:43;9.77;;;6.32;;
11287;SDS011;5700;50.996;7.044;2023-04-19T04:17:44;12.48;;;6.72;;
11287;SDS011;5700;50.996;7.044;2023-04-19T04:20:46;11.23;;;5.85;;
11287;SDS011;5700;50.996;7.044;2023-04-19T04:23:47;10.30;;;6.63;;
11287;SDS011;5700;50.996;7.044;2023-04-19T04:26:51;11.98;;;6.88;;
11287;SDS011;5700;50.996;7.044;2023-04-19T04:29:53;11.45;;;7.22;;
11287;SDS011;5700;50.996;7.044;2023-04-19T04:32:55;12.52;;;7.47;;
11287;SDS011;5700;50.996;7.044;2023-04-19T04:35:58;12.82;;;7.72;;
11287;SDS011;5700;50.996;7.044;2023-04-19T04:38:59;11.38;;;6.78;;
11287;SDS011;5700;50.996;7.044;2023-04-19T04:42:02;12.07;;;7.38;;
11287;SDS011;5700;50.996;7.044;2023-04-19T04:45:04;12.48;;;7.40;;
11287;SDS011;5700;50.996;7.044;2023-04-19T04:48:06;10.32;;;6.38;;
11287;SDS011;5700;50.996;7.044;2023-04-19T04:51:08;15.68;;;7.72;;
11287;SDS011;5700;50.996;7.044;2023-04-19T04:54:09;13.05;;;6.90;;
11287;SDS011;5700;50.996;7.044;2023-04-19T04:57:12;15.05;;;7.82;;
11287;SDS011;5700;50.996;7.044;2023-04-19T05:00:13;11.85;;;7.28;;
11287;SDS011;5700;50.996;7.044;2023-04-19T05:03:15;10.13;;;6.43;;
11287;SDS011;5700;50.996;7.044;2023-04-19T05:06:17;13.13;;;7.30;;
11287;SDS011;5700;50.996;7.044;2023-04-19T05:09:18;10.60;;;6.68;;
11287;SDS011;5700;50.996;7.044;2023-04-19T05:12:21;11.00;;;6.97;;
11287;SDS011;5700;50.996;7.044;2023-04-19T05:15:22;13.65;;;7.07;;
11287;SDS011;5700;50.996;7.044;2023-04-19T05:18:24;16.13;;;8.23;;
11287;SDS011;5700;50.996;7.044;2023-04-19T05:21:25;12.38;;;7.57;;
11287;SDS011;5700;50.996;7.044;2023-04-19T05:24:26;12.80;;;8.05;;
11287;SDS011;5700;50.996;7.044;2023-04-19T05:27:29;12.93;;;7.95;;
11287;SDS011;5700;50.996;7.044;2023-04-19T05:30:30;13.43;;;7.82;;
11287;SDS011;5700;50.996;7.044;2023-04-19T05:33:32;14.82;;;8.32;;
11287;SDS011;5700;50.996;7.044;2023-04-19T05:36:33;12.52;;;7.55;;
11287;SDS011;5700;50.996;7.044;2023-04-19T05:39:35;15.48;;;7.82;;
11287;SDS011;5700;50.996;7.044;2023-04-19T05:42:38;12.95;;;7.60;;
11287;SDS011;5700;50.996;7.044;2023-04-19T05:45:39;14.02;;;8.25;;
11287;SDS011;5700;50.996;7.044;2023-04-19T05:48:41;12.43;;;7.55;;
11287;SDS011;5700;50.996;7.044;2023-04-19T05:51:42;14.10;;;7.32;;
11287;SDS011;5700;50.996;7.044;2023-04-19T05:54:44;15.10;;;7.93;;
11287;SDS011;5700;50.996;7.044;2023-04-19T05:57:46;13.68;;;6.63;;
11287;SDS011;5700;50.996;7.044;2023-04-19T06:00:48;13.32;;;6.75;;
11287;SDS011;5700;50.996;7.044;2023-04-19T06:03:51;11.02;;;6.15;;
11287;SDS011;5700;50.996;7.044;2023-04-19T06:06:54;10.82;;;6.15;;
11287;SDS011;5700;50.996;7.044;2023-04-19T06:09:55;11.52;;;6.30;;
11287;SDS011;5700;50.996;7.044;2023-04-19T06:12:58;12.15;;;5.82;;
11287;SDS011;5700;50.996;7.044;2023-04-19T06:16:00;11.68;;;5.35;;
11287;SDS011;5700;50.996;7.044;2023-04-19T06:19:02;11.32;;;5.10;;
11287;SDS011;5700;50.996;7.044;2023-04-19T06:22:03;9.48;;;5.63;;
11287;SDS011;5700;50.996;7.044;2023-04-19T06:25:05;10.02;;;4.82;;
11287;SDS011;5700;50.996;7.044;2023-04-19T06:28:08;9.48;;;5.18;;
11287;SDS011;5700;50.996;7.044;2023-04-19T06:31:10;8.82;;;4.25;;
11287;SDS011;5700;50.996;7.044;2023-04-19T06:34:11;8.98;;;4.55;;
11287;SDS011;5700;50.996;7.044;2023-04-19T06:37:12;8.32;;;4.50;;
11287;SDS011;5700;50.996;7.044;2023-04-19T06:40:14;7.55;;;4.25;;
11287;SDS011;5700;50.996;7.044;2023-04-19T06:43:16;9.35;;;4.55;;
11287;SDS011;5700;50.996;7.044;2023-04-19T06:46:18;10.05;;;3.70;;
11287;SDS011;5700;50.996;7.044;2023-04-19T06:49:19;5.90;;;3.10;;
11287;SDS011;5700;50.996;7.044;2023-04-19T06:52:21;7.30;;;2.92;;
11287;SDS011;5700;50.996;7.044;2023-04-19T06:55:23;7.43;;;3.20;;
11287;SDS011;5700;50.996;7.044;2023-04-19T06:58:25;6.78;;;2.75;;
11287;SDS011;5700;50.996;7.044;2023-04-19T07:01:27;5.95;;;2.42;;
11287;SDS011;5700;50.996;7.044;2023-04-19T07:04:28;5.18;;;2.35;;
11287;SDS011;5700;50.996;7.044;2023-04-19T07:07:30;5.95;;;3.10;;
11287;SDS011;5700;50.996;7.044;2023-04-19T07:10:32;5.45;;;2.47;;
11287;SDS011;5700;50.996;7.044;2023-04-19T07:13:34;3.83;;;2.17;;
11287;SDS011;5700;50.996;7.044;2023-04-19T07:16:36;5.45;;;2.92;;
11287;SDS011;5700;50.996;7.044;2023-04-19T07:19:37;7.82;;;2.97;;
11287;SDS011;5700;50.996;7.044;2023-04-19T07:22:39;4.28;;;2.03;;
11287;SDS011;5700;50.996;7.044;2023-04-19T07:25:40;7.20;;;2.35;;
11287;SDS011;5700;50.996;7.044;2023-04-19T07:28:43;6.03;;;2.40;;
11287;SDS011;5700;50.996;7.044;2023-04-19T07:31:45;5.20;;;2.50;;
11287;SDS011;5700;50.996;7.044;2023-04-19T07:34:46;6.18;;;2.97;;
11287;SDS011;5700;50.996;7.044;2023-04-19T07:37:47;7.18;;;2.85;;
11287;SDS011;5700;50.996;7.044;2023-04-19T07:40:49;7.70;;;2.83;;
11287;SDS011;5700;50.996;7.044;2023-04-19T07:43:52;7.88;;;2.75;;
11287;SDS011;5700;50.996;7.044;2023-04-19T07:46:53;5.25;;;2.45;;
11287;SDS011;5700;50.996;7.044;2023-04-19T07:49:55;5.72;;;2.83;;
11287;SDS011;5700;50.996;7.044;2023-04-19T07:52:56;6.80;;;2.75;;
11287;SDS011;5700;50.996;7.044;2023-04-19T07:55:57;4.07;;;2.20;;
11287;SDS011;5700;50.996;7.044;2023-04-19T07:59:00;9.63;;;2.88;;
11287;SDS011;5700;50.996;7.044;2023-04-19T08:02:02;6.90;;;3.40;;
11287;SDS011;5700;50.996;7.044;2023-04-19T08:05:03;6.00;;;3.33;;
11287;SDS011;5700;50.996;7.044;2023-04-19T08:08:05;6.45;;;3.15;;
11287;SDS011;5700;50.996;7.044;2023-04-19T08:11:06;6.95;;;3.03;;
11287;SDS011;5700;50.996;7.044;2023-04-19T08:14:09;7.13;;;3.38;;
11287;SDS011;5700;50.996;7.044;2023-04-19T08:17:11;6.25;;;3.35;;
11287;SDS011;5700;50.996;7.044;2023-04-19T08:20:12;5.97;;;3.53;;
11287;SDS011;5700;50.996;7.044;2023-04-19T08:23:14;5.20;;;2.88;;
11287;SDS011;5700;50.996;7.044;2023-04-19T08:26:15;5.70;;;3.20;;
11287;SDS011;5700;50.996;7.044;2023-04-19T08:29:18;6.22;;;3.20;;
11287;SDS011;5700;50.996;7.044;2023-04-19T08:32:19;5.07;;;2.92;;
11287;SDS011;5700;50.996;7.044;2023-04-19T08:35:21;6.63;;;2.83;;
11287;SDS011;5700;50.996;7.044;2023-04-19T08:38:24;5.20;;;3.03;;
11287;SDS011;5700;50.996;7.044;2023-04-19T08:41:25;5.95;;;3.05;;
11287;SDS011;5700;50.996;7.044;2023-04-19T08:44:28;6.38;;;3.20;;
11287;SDS011;5700;50.996;7.044;2023-04-19T08:47:31;8.95;;;3.08;;
11287;SDS011;5700;50.996;7.044;2023-04-19T08:50:33;5.53;;;3.03;;
11287;SDS011;5700;50.996;7.044;2023-04-19T08:53:35;8.02;;;3.83;;
11287;SDS011;5700;50.996;7.044;2023-04-19T08:56:37;6.75;;;3.25;;
11287;SDS011;5700;50.996;7.044;2023-04-19T08:59:40;5.40;;;3.05;;
11287;SDS011;5700;50.996;7.044;2023-04-19T09:02:45;6.57;;;2.75;;
11287;SDS011;5700;50.996;7.044;2023-04-19T09:05:47;3.15;;;1.73;;
11287;SDS011;5700;50.996;7.044;2023-04-19T09:08:48;3.17;;;1.65;;
11287;SDS011;5700;50.996;7.044;2023-04-19T09:11:51;3.92;;;1.60;;
11287;SDS011;5700;50.996;7.044;2023-04-19T09:14:54;6.75;;;2.20;;
11287;SDS011;5700;50.996;7.044;2023-04-19T09:18:02;3.25;;;1.90;;
11287;SDS011;5700;50.996;7.044;2023-04-19T09:21:04;3.13;;;1.55;;
11287;SDS011;5700;50.996;7.044;2023-04-19T09:24:06;4.13;;;1.83;;
11287;SDS011;5700;50.996;7.044;2023-04-19T09:27:07;3.03;;;1.75;;
11287;SDS011;5700;50.996;7.044;2023-04-19T09:30:12;4.93;;;1.70;;
11287;SDS011;5700;50.996;7.044;2023-04-19T09:33:17;4.47;;;1.98;;
11287;SDS011;5700;50.996;7.044;2023-04-19T09:36:32;3.63;;;1.70;;
11287;SDS011;5700;50.996;7.044;2023-04-19T09:39:34;3.08;;;1.42;;
11287;SDS011;5700;50.996;7.044;2023-04-19T09:42:43;3.80;;;1.77;;
11287;SDS011;5700;50.996;7.044;2023-04-19T09:45:47;3.53;;;1.60;;
11287;SDS011;5700;50.996;7.044;2023-04-19T09:48:48;4.68;;;1.73;;
11287;SDS011;5700;50.996;7.044;2023-04-19T09:51:51;2.47;;;1.33;;
11287;SDS011;5700;50.996;7.044;2023-04-19T09:54:53;3.00;;;1.50;;
11287;SDS011;5700;50.996;7.044;2023-04-19T09:57:55;3.08;;;1.63;;
11287;SDS011;5700;50.996;7.044;2023-04-19T10:00:58;3.33;;;1.60;;
11287;SDS011;5700;50.996;7.044;2023-04-19T10:03:59;3.40;;;1.55;;
11287;SDS011;5700;50.996;7.044;2023-04-19T10:07:03;3.65;;;1.30;;
11287;SDS011;5700;50.996;7.044;2023-04-19T10:10:06;3.15;;;1.73;;
11287;SDS011;5700;50.996;7.044;2023-04-19T10:13:09;3.25;;;1.58;;
11287;SDS011;5700;50.996;7.044;2023-04-19T10:16:13;3.47;;;1.70;;
11287;SDS011;5700;50.996;7.044;2023-04-19T10:19:15;4.95;;;1.63;;
11287;SDS011;5700;50.996;7.044;2023-04-19T10:22:18;3.63;;;1.55;;
11287;SDS011;5700;50.996;7.044;2023-04-19T10:25:22;3.90;;;1.38;;
11287;SDS011;5700;50.996;7.044;2023-04-19T10:28:28;3.22;;;1.65;;
11287;SDS011;5700;50.996;7.044;2023-04-19T10:31:31;2.88;;;1.48;;
11287;SDS011;5700;50.996;7.044;2023-04-19T10:34:37;7.10;;;1.83;;
11287;SDS011;5700;50.996;7.044;2023-04-19T10:37:39;2.75;;;1.33;;
11287;SDS011;5700;50.996;7.044;2023-04-19T10:47:23;3.53;;;1.77;;
11287;SDS011;5700;50.996;7.044;2023-04-19T10:53:57;4.57;;;1.88;;
11287;SDS011;5700;50.996;7.044;2023-04-19T10:57:00;3.13;;;1.30;;
11287;SDS011;5700;50.996;7.044;2023-04-19T11:07:00;3.28;;;1.60;;
11287;SDS011;5700;50.996;7.044;2023-04-19T11:10:03;2.65;;;1.40;;
11287;SDS011;5700;50.996;7.044;2023-04-19T11:13:05;2.75;;;1.33;;
11287;SDS011;5700;50.996;7.044;2023-04-19T11:16:07;4.05;;;1.67;;
11287;SDS011;5700;50.996;7.044;2023-04-19T11:19:09;3.20;;;1.70;;
11287;SDS011;5700;50.996;7.044;2023-04-19T11:22:12;2.70;;;1.30;;
11287;SDS011;5700;50.996;7.044;2023-04-19T11:25:14;3.72;;;1.42;;
11287;SDS011;5700;50.996;7.044;2023-04-19T11:28:17;1.95;;;1.23;;
11287;SDS011;5700;50.996;7.044;2023-04-19T11:31:20;2.00;;;1.05;;
11287;SDS011;5700;50.996;7.044;2023-04-19T11:34:23;2.45;;;1.40;;
11287;SDS011;5700;50.996;7.044;2023-04-19T11:37:30;2.10;;;1.35;;
11287;SDS011;5700;50.996;7.044;2023-04-19T11:40:32;3.38;;;1.27;;
11287;SDS011;5700;50.996;7.044;2023-04-19T11:43:36;2.80;;;1.30;;
11287;SDS011;5700;50.996;7.044;2023-04-19T11:46:37;1.67;;;0.88;;
11287;SDS011;5700;50.996;7.044;2023-04-19T11:49:39;2.25;;;1.42;;
11287;SDS011;5700;50.996;7.044;2023-04-19T11:52:41;1.67;;;1.20;;
11287;SDS011;5700;50.996;7.044;2023-04-19T11:55:50;3.63;;;1.38;;
11287;SDS011;5700;50.996;7.044;2023-04-19T11:58:55;2.35;;;1.02;;
11287;SDS011;5700;50.996;7.044;2023-04-19T12:02:05;2.88;;;1.00;;
11287;SDS011;5700;50.996;7.044;2023-04-19T12:05:08;2.65;;;1.10;;
11287;SDS011;5700;50.996;7.044;2023-04-19T12:08:11;2.33;;;0.98;;
11287;SDS011;5700;50.996;7.044;2023-04-19T12:11:13;2.85;;;0.90;;
11287;SDS011;5700;50.996;7.044;2023-04-19T12:14:15;3.20;;;1.10;;
11287;SDS011;5700;50.996;7.044;2023-04-19T12:17:19;2.25;;;1.10;;
11287;SDS011;5700;50.996;7.044;2023-04-19T12:20:27;2.47;;;1.17;;
11287;SDS011;5700;50.996;7.044;2023-04-19T12:23:31;1.50;;;0.80;;
11287;SDS011;5700;50.996;7.044;2023-04-19T12:26:32;1.60;;;0.90;;
11287;SDS011;5700;50.996;7.044;2023-04-19T12:29:34;2.50;;;1.00;;
11287;SDS011;5700;50.996;7.044;2023-04-19T12:32:36;2.00;;;1.30;;
11287;SDS011;5700;50.996;7.044;2023-04-19T12:35:38;2.00;;;0.93;;
11287;SDS011;5700;50.996;7.044;2023-04-19T12:38:41;2.35;;;1.20;;
11287;SDS011;5700;50.996;7.044;2023-04-19T12:41:42;1.75;;;1.08;;
11287;SDS011;5700;50.996;7.044;2023-04-19T12:44:44;2.25;;;0.98;;
11287;SDS011;5700;50.996;7.044;2023-04-19T12:47:46;1.90;;;1.15;;
11287;SDS011;5700;50.996;7.044;2023-04-19T12:50:48;3.13;;;0.80;;
11287;SDS011;5700;50.996;7.044;2023-04-19T12:53:51;1.60;;;1.08;;
11287;SDS011;5700;50.996;7.044;2023-04-19T12:56:52;1.80;;;1.17;;
11287;SDS011;5700;50.996;7.044;2023-04-19T12:59:54;8.27;;;1.33;;
11287;SDS011;5700;50.996;7.044;2023-04-19T13:02:55;8.93;;;1.60;;
11287;SDS011;5700;50.996;7.044;2023-04-19T13:05:57;2.13;;;1.23;;
11287;SDS011;5700;50.996;7.044;2023-04-19T13:09:00;5.07;;;1.55;;
11287;SDS011;5700;50.996;7.044;2023-04-19T13:12:02;2.53;;;1.25;;
11287;SDS011;5700;50.996;7.044;2023-04-19T13:15:04;1.88;;;1.30;;
11287;SDS011;5700;50.996;7.044;2023-04-19T13:18:06;3.45;;;1.65;;
11287;SDS011;5700;50.996;7.044;2023-04-19T13:21:08;5.15;;;1.40;;
11287;SDS011;5700;50.996;7.044;2023-04-19T13:24:11;2.97;;;1.50;;
11287;SDS011;5700;50.996;7.044;2023-04-19T13:27:12;2.75;;;1.60;;
11287;SDS011;5700;50.996;7.044;2023-04-19T13:30:14;3.00;;;1.33;;
11287;SDS011;5700;50.996;7.044;2023-04-19T13:33:15;3.40;;;1.42;;
11287;SDS011;5700;50.996;7.044;2023-04-19T13:36:17;2.05;;;1.30;;
11287;SDS011;5700;50.996;7.044;2023-04-19T13:39:20;4.13;;;1.80;;
11287;SDS011;5700;50.996;7.044;2023-04-19T13:42:21;2.65;;;1.30;;
11287;SDS011;5700;50.996;7.044;2023-04-19T13:45:22;3.45;;;1.58;;
11287;SDS011;5700;50.996;7.044;2023-04-19T13:48:24;4.25;;;1.42;;
11287;SDS011;5700;50.996;7.044;2023-04-19T13:51:27;4.13;;;2.40;;
11287;SDS011;5700;50.996;7.044;2023-04-19T13:54:30;1.98;;;1.25;;
11287;SDS011;5700;50.996;7.044;2023-04-19T13:57:31;3.88;;;1.30;;
11287;SDS011;5700;50.996;7.044;2023-04-19T14:00:33;3.80;;;1.42;;
11287;SDS011;5700;50.996;7.044;2023-04-19T14:03:34;4.53;;;1.10;;
11287;SDS011;5700;50.996;7.044;2023-04-19T14:06:36;2.85;;;1.50;;
11287;SDS011;5700;50.996;7.044;2023-04-19T14:09:38;3.55;;;1.77;;
11287;SDS011;5700;50.996;7.044;2023-04-19T14:12:41;3.00;;;1.48;;
11287;SDS011;5700;50.996;7.044;2023-04-19T14:15:44;3.80;;;1.55;;
11287;SDS011;5700;50.996;7.044;2023-04-19T14:18:45;5.55;;;2.10;;
11287;SDS011;5700;50.996;7.044;2023-04-19T14:21:47;2.92;;;1.58;;
11287;SDS011;5700;50.996;7.044;2023-04-19T14:24:49;6.95;;;1.85;;
11287;SDS011;5700;50.996;7.044;2023-04-19T14:27:51;5.20;;;1.90;;
11287;SDS011;5700;50.996;7.044;2023-04-19T14:30:52;2.45;;;1.42;;
11287;SDS011;5700;50.996;7.044;2023-04-19T14:33:53;3.53;;;1.98;;
11287;SDS011;5700;50.996;7.044;2023-04-19T14:36:55;2.97;;;1.63;;
11287;SDS011;5700;50.996;7.044;2023-04-19T14:39:58;3.05;;;1.73;;
11287;SDS011;5700;50.996;7.044;2023-04-19T14:42:59;3.55;;;1.60;;
11287;SDS011;5700;50.996;7.044;2023-04-19T14:46:01;2.92;;;1.55;;
11287;SDS011;5700;50.996;7.044;2023-04-19T14:49:02;5.18;;;2.30;;
11287;SDS011;5700;50.996;7.044;2023-04-19T14:52:05;4.10;;;1.77;;
11287;SDS011;5700;50.996;7.044;2023-04-19T14:55:08;3.40;;;1.80;;
11287;SDS011;5700;50.996;7.044;2023-04-19T14:58:12;4.80;;;2.10;;
11287;SDS011;5700;50.996;7.044;2023-04-19T15:01:14;3.50;;;1.60;;
11287;SDS011;5700;50.996;7.044;2023-04-19T15:04:15;5.03;;;2.05;;
11287;SDS011;5700;50.996;7.044;2023-04-19T15:07:17;3.60;;;1.75;;
11287;SDS011;5700;50.996;7.044;2023-04-19T15:10:20;3.38;;;1.65;;
11287;SDS011;5700;50.996;7.044;2023-04-19T15:13:21;5.85;;;1.50;;
11287;SDS011;5700;50.996;7.044;2023-04-19T15:16:22;2.15;;;1.30;;
11287;SDS011;5700;50.996;7.044;2023-04-19T15:19:24;2.95;;;1.88;;
11287;SDS011;5700;50.996;7.044;2023-04-19T15:22:25;3.50;;;1.73;;
11287;SDS011;5700;50.996;7.044;2023-04-19T15:25:28;4.72;;;1.80;;
11287;SDS011;5700;50.996;7.044;2023-04-19T15:28:29;2.38;;;1.70;;
11287;SDS011;5700;50.996;7.044;2023-04-19T15:31:34;3.33;;;1.70;;
11287;SDS011;5700;50.996;7.044;2023-04-19T15:34:35;3.88;;;2.08;;
11287;SDS011;5700;50.996;7.044;2023-04-19T15:37:36;3.58;;;1.85;;
11287;SDS011;5700;50.996;7.044;2023-04-19T15:40:41;7.68;;;2.00;;
11287;SDS011;5700;50.996;7.044;2023-04-19T15:43:42;3.58;;;2.05;;
11287;SDS011;5700;50.996;7.044;2023-04-19T15:46:43;3.85;;;1.88;;
11287;SDS011;5700;50.996;7.044;2023-04-19T15:49:45;2.70;;;1.75;;
11287;SDS011;5700;50.996;7.044;2023-04-19T15:52:47;3.10;;;1.67;;
11287;SDS011;5700;50.996;7.044;2023-04-19T15:55:49;4.72;;;1.88;;
11287;SDS011;5700;50.996;7.044;2023-04-19T15:58:51;2.40;;;1.50;;
11287;SDS011;5700;50.996;7.044;2023-04-19T16:01:52;3.55;;;2.00;;
11287;SDS011;5700;50.996;7.044;2023-04-19T16:04:54;2.30;;;1.42;;
11287;SDS011;5700;50.996;7.044;2023-04-19T16:07:59;4.20;;;1.48;;
11287;SDS011;5700;50.996;7.044;2023-04-19T16:11:03;9.77;;;2.33;;
11287;SDS011;5700;50.996;7.044;2023-04-19T16:14:05;4.25;;;2.28;;
11287;SDS011;5700;50.996;7.044;2023-04-19T16:17:06;5.07;;;1.70;;
11287;SDS011;5700;50.996;7.044;2023-04-19T16:20:08;6.28;;;1.75;;
11287;SDS011;5700;50.996;7.044;2023-04-19T16:23:10;3.58;;;1.83;;
11287;SDS011;5700;50.996;7.044;2023-04-19T16:26:15;3.45;;;1.50;;
11287;SDS011;5700;50.996;7.044;2023-04-19T16:29:16;3.70;;;1.73;;
11287;SDS011;5700;50.996;7.044;2023-04-19T16:32:18;3.42;;;1.30;;
11287;SDS011;5700;50.996;7.044;2023-04-19T16:35:19;1.63;;;1.27;;
11287;SDS011;5700;50.996;7.044;2023-04-19T16:38:21;2.78;;;1.38;;
11287;SDS011;5700;50.996;7.044;2023-04-19T16:41:24;3.30;;;1.73;;
11287;SDS011;5700;50.996;7.044;2023-04-19T16:44:25;2.78;;;1.30;;
11287;SDS011;5700;50.996;7.044;2023-04-19T16:47:26;2.53;;;1.60;;
11287;SDS011;5700;50.996;7.044;2023-04-19T16:50:30;6.18;;;1.80;;
11287;SDS011;5700;50.996;7.044;2023-04-19T16:53:31;2.80;;;1.30;;
11287;SDS011;5700;50.996;7.044;2023-04-19T16:56:34;3.38;;;1.80;;
11287;SDS011;5700;50.996;7.044;2023-04-19T16:59:35;4.70;;;1.60;;
11287;SDS011;5700;50.996;7.044;2023-04-19T17:02:37;3.45;;;1.65;;
11287;SDS011;5700;50.996;7.044;2023-04-19T17:05:39;2.45;;;1.67;;
11287;SDS011;5700;50.996;7.044;2023-04-19T17:08:40;2.65;;;1.23;;
11287;SDS011;5700;50.996;7.044;2023-04-19T17:11:43;2.88;;;1.42;;
11287;SDS011;5700;50.996;7.044;2023-04-19T17:14:44;2.30;;;1.30;;
11287;SDS011;5700;50.996;7.044;2023-04-19T17:17:45;4.97;;;1.40;;
11287;SDS011;5700;50.996;7.044;2023-04-19T17:20:47;2.33;;;1.40;;
11287;SDS011;5700;50.996;7.044;2023-04-19T17:23:48;3.03;;;1.48;;
11287;SDS011;5700;50.996;7.044;2023-04-19T17:26:51;3.65;;;1.35;;
11287;SDS011;5700;50.996;7.044;2023-04-19T17:29:52;1.70;;;1.10;;
11287;SDS011;5700;50.996;7.044;2023-04-19T17:32:54;4.38;;;1.30;;
11287;SDS011;5700;50.996;7.044;2023-04-19T17:35:55;4.20;;;1.50;;
11287;SDS011;5700;50.996;7.044;2023-04-19T17:38:57;3.60;;;1.30;;
11287;SDS011;5700;50.996;7.044;2023-04-19T17:41:59;3.25;;;1.40;;
11287;SDS011;5700;50.996;7.044;2023-04-19T17:45:00;2.67;;;1.33;;
11287;SDS011;5700;50.996;7.044;2023-04-19T17:48:03;2.33;;;1.30;;
11287;SDS011;5700;50.996;7.044;2023-04-19T17:51:05;2.13;;;1.40;;
11287;SDS011;5700;50.996;7.044;2023-04-19T17:54:07;2.45;;;1.33;;
11287;SDS011;5700;50.996;7.044;2023-04-19T17:57:09;2.03;;;1.45;;
11287;SDS011;5700;50.996;7.044;2023-04-19T18:00:11;2.97;;;1.08;;
11287;SDS011;5700;50.996;7.044;2023-04-19T18:03:13;2.33;;;1.30;;
11287;SDS011;5700;50.996;7.044;2023-04-19T18:06:14;2.80;;;1.30;;
11287;SDS011;5700;50.996;7.044;2023-04-19T18:09:17;3.08;;;1.52;;
11287;SDS011;5700;50.996;7.044;2023-04-19T18:12:20;3.78;;;1.50;;
11287;SDS011;5700;50.996;7.044;2023-04-19T18:15:21;3.30;;;1.60;;
11287;SDS011;5700;50.996;7.044;2023-04-19T18:18:23;5.18;;;1.30;;
11287;SDS011;5700;50.996;7.044;2023-04-19T18:21:24;4.00;;;1.67;;
11287;SDS011;5700;50.996;7.044;2023-04-19T18:24:26;2.60;;;1.52;;
11287;SDS011;5700;50.996;7.044;2023-04-19T18:27:28;3.45;;;1.35;;
11287;SDS011;5700;50.996;7.044;2023-04-19T18:30:30;4.03;;;1.30;;
11287;SDS011;5700;50.996;7.044;2023-04-19T18:33:31;2.10;;;1.38;;
11287;SDS011;5700;50.996;7.044;2023-04-19T18:36:33;5.53;;;2.60;;
11287;SDS011;5700;50.996;7.044;2023-04-19T18:39:34;2.67;;;1.48;;
11287;SDS011;5700;50.996;7.044;2023-04-19T18:42:37;2.85;;;1.58;;
11287;SDS011;5700;50.996;7.044;2023-04-19T18:45:38;2.53;;;1.42;;
11287;SDS011;5700;50.996;7.044;2023-04-19T18:48:39;3.63;;;1.70;;